sensor_id;sensor_type;location;lat;lon;timestamp;P1;durP1;ratioP1;P2;durP2;ratioP2
37341;SDS011;58643;49.052;8.518;2023-08-24T10:47:05;4.10;;;3.38;;
37341;SDS011;58643;49.052;8.518;2023-08-24T10:49:38;10.43;;;3.05;;
37341;SDS011;58643;49.052;8.518;2023-08-24T10:52:17;8.10;;;3.40;;
37341;SDS011;58643;49.052;8.518;2023-08-24T10:54:50;5.63;;;2.95;;
37341;SDS011;58643;49.052;8.518;2023-08-24T10:57:24;8.68;;;3.10;;
37341;SDS011;58643;49.052;8.518;2023-08-24T10:59:59;4.40;;;3.20;;
37341;SDS011;58643;49.052;8.518;2023-08-24T11:10:14;6.05;;;2.97;;
37341;SDS011;58643;49.052;8.518;2023-08-24T11:15:32;7.72;;;3.08;;
37341;SDS011;58643;49.052;8.518;2023-08-24T11:20:47;6.53;;;2.97;;
37341;SDS011;58643;49.052;8.518;2023-08-24T11:23:16;6.50;;;3.45;;
37341;SDS011;58643;49.052;8.518;2023-08-24T11:25:46;9.82;;;3.40;;
37341;SDS011;58643;49.052;8.518;2023-08-24T11:30:44;5.53;;;3.50;;
37341;SDS011;58643;49.052;8.518;2023-08-24T11:33:10;4.53;;;3.00;;
37341;SDS011;58643;49.052;8.518;2023-08-24T11:35:40;7.32;;;3.30;;
37341;SDS011;58643;49.052;8.518;2023-08-24T11:38:09;9.30;;;3.72;;
37341;SDS011;58643;49.052;8.518;2023-08-24T11:40:35;6.45;;;3.40;;
37341;SDS011;58643;49.052;8.518;2023-08-24T11:43:02;5.30;;;3.60;;
37341;SDS011;58643;49.052;8.518;2023-08-24T11:45:31;7.32;;;3.30;;
37341;SDS011;58643;49.052;8.518;2023-08-24T11:47:59;9.93;;;3.40;;
37341;SDS011;58643;49.052;8.518;2023-08-24T11:50:29;5.68;;;3.33;;
37341;SDS011;58643;49.052;8.518;2023-08-24T11:52:55;7.13;;;3.70;;
37341;SDS011;58643;49.052;8.518;2023-08-24T11:55:24;8.30;;;3.35;;
37341;SDS011;58643;49.052;8.518;2023-08-24T11:57:50;4.28;;;3.10;;
37341;SDS011;58643;49.052;8.518;2023-08-24T12:00:17;7.72;;;3.40;;
37341;SDS011;58643;49.052;8.518;2023-08-24T12:02:45;5.80;;;3.03;;
37341;SDS011;58643;49.052;8.518;2023-08-24T12:05:21;4.75;;;3.00;;
37341;SDS011;58643;49.052;8.518;2023-08-24T12:07:51;6.38;;;2.92;;
37341;SDS011;58643;49.052;8.518;2023-08-24T12:10:18;12.80;;;4.75;;
37341;SDS011;58643;49.052;8.518;2023-08-24T12:12:44;8.27;;;3.42;;
37341;SDS011;58643;49.052;8.518;2023-08-24T12:15:18;5.80;;;3.08;;
37341;SDS011;58643;49.052;8.518;2023-08-24T12:17:50;9.20;;;3.38;;
37341;SDS011;58643;49.052;8.518;2023-08-24T12:20:17;9.75;;;3.50;;
37341;SDS011;58643;49.052;8.518;2023-08-24T12:22:49;7.68;;;3.22;;
37341;SDS011;58643;49.052;8.518;2023-08-24T12:25:17;6.53;;;3.03;;
37341;SDS011;58643;49.052;8.518;2023-08-24T12:27:43;7.28;;;3.00;;
37341;SDS011;58643;49.052;8.518;2023-08-24T12:30:10;8.65;;;3.35;;
37341;SDS011;58643;49.052;8.518;2023-08-24T12:32:48;8.05;;;3.58;;
37341;SDS011;58643;49.052;8.518;2023-08-24T12:35:16;8.98;;;3.10;;
37341;SDS011;58643;49.052;8.518;2023-08-24T12:37:43;6.78;;;3.38;;
37341;SDS011;58643;49.052;8.518;2023-08-24T12:40:08;9.40;;;3.75;;
37341;SDS011;58643;49.052;8.518;2023-08-24T12:42:34;9.02;;;3.45;;
37341;SDS011;58643;49.052;8.518;2023-08-24T12:45:00;6.60;;;3.88;;
37341;SDS011;58643;49.052;8.518;2023-08-24T12:47:26;6.85;;;3.90;;
37341;SDS011;58643;49.052;8.518;2023-08-24T12:49:51;6.82;;;3.33;;
37341;SDS011;58643;49.052;8.518;2023-08-24T12:52:19;13.13;;;5.30;;
37341;SDS011;58643;49.052;8.518;2023-08-24T12:54:45;5.68;;;3.45;;
37341;SDS011;58643;49.052;8.518;2023-08-24T12:57:11;9.07;;;3.72;;
37341;SDS011;58643;49.052;8.518;2023-08-24T12:59:36;8.13;;;4.30;;
37341;SDS011;58643;49.052;8.518;2023-08-24T13:02:02;11.25;;;3.40;;
37341;SDS011;58643;49.052;8.518;2023-08-24T13:04:29;8.80;;;4.32;;
37341;SDS011;58643;49.052;8.518;2023-08-24T13:06:56;6.78;;;3.80;;
37341;SDS011;58643;49.052;8.518;2023-08-24T13:09:24;10.05;;;3.78;;
37341;SDS011;58643;49.052;8.518;2023-08-24T13:11:50;6.28;;;3.38;;
37341;SDS011;58643;49.052;8.518;2023-08-24T13:14:16;6.53;;;3.58;;
37341;SDS011;58643;49.052;8.518;2023-08-24T13:16:42;4.65;;;3.33;;
37341;SDS011;58643;49.052;8.518;2023-08-24T13:19:07;6.55;;;3.40;;
37341;SDS011;58643;49.052;8.518;2023-08-24T13:21:33;8.98;;;3.42;;
37341;SDS011;58643;49.052;8.518;2023-08-24T13:23:59;5.68;;;3.40;;
37341;SDS011;58643;49.052;8.518;2023-08-24T13:26:25;5.10;;;3.08;;
37341;SDS011;58643;49.052;8.518;2023-08-24T13:28:51;11.15;;;3.17;;
37341;SDS011;58643;49.052;8.518;2023-08-24T13:31:17;5.65;;;3.40;;
37341;SDS011;58643;49.052;8.518;2023-08-24T13:33:45;8.23;;;3.20;;
37341;SDS011;58643;49.052;8.518;2023-08-24T13:38:38;7.90;;;3.67;;
37341;SDS011;58643;49.052;8.518;2023-08-24T13:41:04;5.68;;;3.15;;
37341;SDS011;58643;49.052;8.518;2023-08-24T13:43:29;6.15;;;3.63;;
37341;SDS011;58643;49.052;8.518;2023-08-24T13:45:56;6.07;;;3.20;;
37341;SDS011;58643;49.052;8.518;2023-08-24T13:48:22;7.28;;;3.80;;
37341;SDS011;58643;49.052;8.518;2023-08-24T13:50:49;6.72;;;3.53;;
37341;SDS011;58643;49.052;8.518;2023-08-24T13:53:18;6.38;;;3.58;;
37341;SDS011;58643;49.052;8.518;2023-08-24T13:55:44;6.80;;;3.65;;
37341;SDS011;58643;49.052;8.518;2023-08-24T13:58:09;8.27;;;4.15;;
37341;SDS011;58643;49.052;8.518;2023-08-24T14:00:36;6.68;;;4.05;;
37341;SDS011;58643;49.052;8.518;2023-08-24T14:03:02;9.57;;;4.07;;
37341;SDS011;58643;49.052;8.518;2023-08-24T14:05:29;6.97;;;4.28;;
37341;SDS011;58643;49.052;8.518;2023-08-24T14:07:55;15.23;;;4.93;;
37341;SDS011;58643;49.052;8.518;2023-08-24T14:10:20;17.95;;;4.78;;
37341;SDS011;58643;49.052;8.518;2023-08-24T14:12:46;14.65;;;4.60;;
37341;SDS011;58643;49.052;8.518;2023-08-24T14:15:12;7.65;;;4.97;;
37341;SDS011;58643;49.052;8.518;2023-08-24T14:17:37;8.88;;;4.72;;
37341;SDS011;58643;49.052;8.518;2023-08-24T14:20:03;7.43;;;4.13;;
37341;SDS011;58643;49.052;8.518;2023-08-24T14:22:29;10.18;;;4.82;;
37341;SDS011;58643;49.052;8.518;2023-08-24T14:24:55;23.45;;;4.68;;
37341;SDS011;58643;49.052;8.518;2023-08-24T14:27:20;11.35;;;5.68;;
37341;SDS011;58643;49.052;8.518;2023-08-24T14:29:46;15.65;;;7.53;;
37341;SDS011;58643;49.052;8.518;2023-08-24T14:32:11;20.50;;;8.20;;
37341;SDS011;58643;49.052;8.518;2023-08-24T14:34:37;15.93;;;8.98;;
37341;SDS011;58643;49.052;8.518;2023-08-24T14:37:02;16.65;;;9.20;;
37341;SDS011;58643;49.052;8.518;2023-08-24T14:39:28;20.85;;;10.55;;
37341;SDS011;58643;49.052;8.518;2023-08-24T14:41:54;14.10;;;11.00;;
37341;SDS011;58643;49.052;8.518;2023-08-24T14:44:20;16.98;;;11.40;;
37341;SDS011;58643;49.052;8.518;2023-08-24T14:46:45;17.17;;;9.88;;
37341;SDS011;58643;49.052;8.518;2023-08-24T14:49:11;13.88;;;10.38;;
37341;SDS011;58643;49.052;8.518;2023-08-24T14:51:36;14.73;;;11.00;;
37341;SDS011;58643;49.052;8.518;2023-08-24T14:54:05;18.75;;;11.18;;
37341;SDS011;58643;49.052;8.518;2023-08-24T14:56:32;13.93;;;11.90;;
37341;SDS011;58643;49.052;8.518;2023-08-24T14:58:57;19.48;;;11.88;;
37341;SDS011;58643;49.052;8.518;2023-08-24T15:01:23;13.05;;;9.80;;
37341;SDS011;58643;49.052;8.518;2023-08-24T15:03:49;19.30;;;10.82;;
37341;SDS011;58643;49.052;8.518;2023-08-24T15:06:15;12.48;;;9.70;;
37341;SDS011;58643;49.052;8.518;2023-08-24T15:08:40;13.52;;;10.27;;
37341;SDS011;58643;49.052;8.518;2023-08-24T15:11:06;14.98;;;10.13;;
37341;SDS011;58643;49.052;8.518;2023-08-24T15:13:31;16.15;;;9.75;;
37341;SDS011;58643;49.052;8.518;2023-08-24T15:15:57;14.15;;;8.50;;
37341;SDS011;58643;49.052;8.518;2023-08-24T15:18:24;12.23;;;8.75;;
37341;SDS011;58643;49.052;8.518;2023-08-24T15:20:50;15.20;;;8.48;;
37341;SDS011;58643;49.052;8.518;2023-08-24T15:23:26;11.75;;;7.82;;
37341;SDS011;58643;49.052;8.518;2023-08-24T15:25:57;17.80;;;7.28;;
37341;SDS011;58643;49.052;8.518;2023-08-24T15:28:23;8.77;;;6.35;;
37341;SDS011;58643;49.052;8.518;2023-08-24T15:30:49;8.90;;;5.07;;
37341;SDS011;58643;49.052;8.518;2023-08-24T15:33:16;7.97;;;5.20;;
37341;SDS011;58643;49.052;8.518;2023-08-24T15:35:42;9.68;;;5.00;;
37341;SDS011;58643;49.052;8.518;2023-08-24T15:38:11;6.80;;;5.20;;
37341;SDS011;58643;49.052;8.518;2023-08-24T15:40:37;8.63;;;5.28;;
37341;SDS011;58643;49.052;8.518;2023-08-24T15:43:03;12.40;;;5.88;;
37341;SDS011;58643;49.052;8.518;2023-08-24T15:45:30;11.02;;;5.72;;
37341;SDS011;58643;49.052;8.518;2023-08-24T15:47:56;10.73;;;5.40;;
37341;SDS011;58643;49.052;8.518;2023-08-24T15:50:22;8.32;;;5.03;;
37341;SDS011;58643;49.052;8.518;2023-08-24T15:52:48;12.27;;;5.97;;
37341;SDS011;58643;49.052;8.518;2023-08-24T15:55:13;7.68;;;4.65;;
37341;SDS011;58643;49.052;8.518;2023-08-24T15:57:39;6.45;;;4.35;;
37341;SDS011;58643;49.052;8.518;2023-08-24T16:00:05;12.18;;;4.90;;
37341;SDS011;58643;49.052;8.518;2023-08-24T16:02:38;9.25;;;4.40;;
37341;SDS011;58643;49.052;8.518;2023-08-24T16:05:04;8.07;;;4.85;;
37341;SDS011;58643;49.052;8.518;2023-08-24T16:07:30;7.72;;;4.78;;
37341;SDS011;58643;49.052;8.518;2023-08-24T16:09:56;9.50;;;4.90;;
37341;SDS011;58643;49.052;8.518;2023-08-24T16:12:22;8.70;;;5.25;;
37341;SDS011;58643;49.052;8.518;2023-08-24T16:14:48;7.03;;;5.35;;
37341;SDS011;58643;49.052;8.518;2023-08-24T16:17:13;8.73;;;4.80;;
37341;SDS011;58643;49.052;8.518;2023-08-24T16:19:39;8.73;;;5.18;;
37341;SDS011;58643;49.052;8.518;2023-08-24T16:22:04;6.70;;;4.60;;
37341;SDS011;58643;49.052;8.518;2023-08-24T16:24:32;8.88;;;5.05;;
37341;SDS011;58643;49.052;8.518;2023-08-24T16:26:57;6.60;;;4.75;;
37341;SDS011;58643;49.052;8.518;2023-08-24T16:29:23;8.93;;;6.10;;
37341;SDS011;58643;49.052;8.518;2023-08-24T16:31:49;8.05;;;4.75;;
37341;SDS011;58643;49.052;8.518;2023-08-24T16:34:15;8.73;;;5.28;;
37341;SDS011;58643;49.052;8.518;2023-08-24T16:36:40;8.23;;;5.47;;
37341;SDS011;58643;49.052;8.518;2023-08-24T16:39:06;9.30;;;5.20;;
37341;SDS011;58643;49.052;8.518;2023-08-24T16:41:31;8.98;;;4.72;;
37341;SDS011;58643;49.052;8.518;2023-08-24T16:43:58;8.98;;;5.38;;
